Portada
METAR-TAF:

METAR-TAF

Aeroports :

Malakula, Vanuatu

latitud: 16-27-26S, longitud: 167-49-42E, altitud: 2 m

Observació

L'informe es va fer fa 32 minuts, a les 02:00 UTC
Vent 6 kt del Est
Temperatura 32°C
Humitat 100%
Pressió 1007 hPa

METAR: NVSL 270200Z AUTO 09006KT //// // NCD 32/32 Q1007

Hora: 13:32 (02:32 UTC)

Pronòstic

L'informe es va fer fa 4 hores i 12 minuts, a les 22:20 UTC
Pronòstic vàlid del 27 a les 00 UTC al 27 a les 24 UTC
Vent 6 kt del Est
Visibilitat 10 km o més
Núvols disperses a una alçada de 2000 ft

TAF: NVSL 262220Z 2700/2724 10006KT 9999 SCT020

Observacions i pronòstics meteorològics de més de 4000 aeroports (METAR i TAF).

Les estacions disponibles són els punts grocs i vermells al mapa.

Posi el ratolí al punt desitjat per veure el nom de l'estació.

Feu clic per veure les observacions i els pronòstics meteorològics.

Per canviar el mapa: feu clic els botons verds amb una creu de color negre per apropar; al botó verd amb un guió per allunyar la imatge; o en les fletxes verdes per a mapes adjacents.


METAR-TAF: